createdAt,value
2019-03-16T00:01:00.898Z,75.50
2019-03-16T00:03:31.460Z,75.50
2019-03-16T00:06:02.408Z,75.50
2019-03-16T00:08:33.106Z,75.50
2019-03-16T00:11:04.057Z,75.50
2019-03-16T00:13:34.336Z,75.30
2019-03-16T00:16:05.938Z,75.30
2019-03-16T00:18:36.199Z,75.20
2019-03-16T00:28:24.355Z,75.20
2019-03-16T00:31:53.313Z,75.20
2019-03-16T00:35:06.245Z,75.30
2019-03-16T00:39:09.059Z,75.40
2019-03-16T00:45:47.477Z,75.10
2019-03-16T01:03:53.834Z,75.80
2019-03-16T01:07:16.696Z,74.80
2019-03-16T01:10:45.881Z,74.80
2019-03-16T01:14:03.769Z,74.80
2019-03-16T01:20:39.547Z,74.60
2019-03-16T01:24:05.222Z,74.60
2019-03-16T01:27:15.652Z,74.50
2019-03-16T01:31:16.770Z,74.30
2019-03-16T01:44:18.931Z,74.20
2019-03-16T01:47:53.578Z,74.20
2019-03-16T01:51:18.367Z,74.20
2019-03-16T01:54:30.702Z,74.00
2019-03-16T01:57:39.333Z,74.00
2019-03-16T02:01:06.812Z,74.10
2019-03-16T02:04:45.970Z,74.00
2019-03-16T02:11:18.360Z,74.10
2019-03-16T02:15:39.789Z,74.20
2019-03-16T02:25:50.006Z,74.20
2019-03-16T02:29:14.720Z,74.30
2019-03-16T02:32:35.428Z,74.30
2019-03-16T02:35:29.402Z,74.20
2019-03-16T02:38:57.832Z,74.20
2019-03-16T02:42:09.757Z,74.30
2019-03-16T02:45:15.420Z,74.40
2019-03-16T02:51:39.352Z,74.40
2019-03-16T02:54:56.645Z,74.60
2019-03-16T03:01:13.701Z,74.40
2019-03-16T03:04:04.085Z,74.60
2019-03-16T03:07:05.375Z,74.40
2019-03-16T03:17:46.882Z,74.40
2019-03-16T03:20:42.617Z,74.30
2019-03-16T03:24:23.302Z,74.40
2019-03-16T03:27:49.220Z,74.20
2019-03-16T03:31:14.806Z,74.30
2019-03-16T03:34:45.419Z,74.00
2019-03-16T03:38:29.227Z,74.00
2019-03-16T03:42:06.841Z,73.80
2019-03-16T03:45:16.965Z,73.60
2019-03-16T03:48:31.033Z,73.30
2019-03-16T03:52:07.759Z,74.00
2019-03-16T03:58:37.958Z,73.50
2019-03-16T04:17:00.290Z,72.70
2019-03-16T04:20:49.493Z,72.60
2019-03-16T04:27:59.771Z,72.70
2019-03-16T04:34:33.839Z,72.70
2019-03-16T04:40:51.427Z,72.70
2019-03-16T04:48:16.677Z,72.50
2019-03-16T04:52:06.428Z,72.70
2019-03-16T04:59:32.545Z,72.50
2019-03-16T05:13:59.812Z,72.00
2019-03-16T05:17:25.904Z,71.80
2019-03-16T05:24:38.243Z,71.60
2019-03-16T05:27:48.111Z,71.60
2019-03-16T05:31:17.262Z,71.60
2019-03-16T05:34:58.167Z,71.50
2019-03-16T05:38:20.435Z,71.40
2019-03-16T05:41:22.025Z,71.20
2019-03-16T05:44:37.891Z,70.90
2019-03-16T05:47:53.743Z,70.80
2019-03-16T05:59:00.813Z,70.40
2019-03-16T06:02:51.535Z,70.30
2019-03-16T06:06:22.567Z,70.00
2019-03-16T06:09:45.698Z,70.00
2019-03-16T06:13:07.114Z,69.60
2019-03-16T06:17:23.723Z,69.50
2019-03-16T06:20:16.322Z,69.70
2019-03-16T06:23:18.300Z,69.70
2019-03-16T06:26:48.602Z,70.00
2019-03-16T06:30:33.825Z,69.60
2019-03-16T06:34:32.797Z,69.40
2019-03-16T06:37:35.330Z,69.20
2019-03-16T06:41:30.298Z,69.30
2019-03-16T06:51:56.232Z,69.00
2019-03-16T06:55:03.745Z,69.20
2019-03-16T07:01:33.359Z,69.00
2019-03-16T07:04:24.066Z,68.60
2019-03-16T07:07:35.618Z,68.50
2019-03-16T07:10:50.480Z,68.50
2019-03-16T07:13:37.289Z,68.50
2019-03-16T07:16:11.826Z,69.30
2019-03-16T07:18:42.463Z,68.20
2019-03-16T07:21:12.752Z,68.20
2019-03-16T07:23:42.983Z,68.10
2019-03-16T07:26:15.185Z,68.20
2019-03-16T07:28:45.140Z,68.40
2019-03-16T07:31:16.074Z,68.20
2019-03-16T07:33:46.232Z,68.30
2019-03-16T07:36:16.319Z,68.40
2019-03-16T07:38:46.492Z,67.90
2019-03-16T07:41:17.730Z,68.00
2019-03-16T07:43:48.177Z,67.90
2019-03-16T07:46:18.900Z,67.80
2019-03-16T07:48:50.132Z,67.60
2019-03-16T07:51:20.306Z,67.50
2019-03-16T07:53:50.442Z,67.50
2019-03-16T07:56:20.933Z,67.50
2019-03-16T07:58:51.550Z,67.70
2019-03-16T08:01:22.064Z,67.40
2019-03-16T08:03:52.296Z,67.00
2019-03-16T08:06:22.819Z,66.90
2019-03-16T08:08:53.888Z,66.80
2019-03-16T08:11:24.145Z,66.70
2019-03-16T08:13:54.235Z,66.90
2019-03-16T08:16:24.566Z,67.00
2019-03-16T08:18:55.456Z,66.80
2019-03-16T08:21:26.733Z,66.60
2019-03-16T08:23:58.157Z,66.30
2019-03-16T08:26:29.562Z,66.20
2019-03-16T08:28:59.725Z,66.20
2019-03-16T08:31:30.440Z,66.10
2019-03-16T08:34:00.746Z,66.30
2019-03-16T08:36:31.864Z,66.00
2019-03-16T08:39:02.234Z,65.80
2019-03-16T08:41:34.431Z,65.70
2019-03-16T08:44:05.112Z,65.80
2019-03-16T08:46:35.378Z,65.20
2019-03-16T08:49:07.072Z,65.30
2019-03-16T08:51:38.639Z,65.90
2019-03-16T08:54:09.283Z,65.40
2019-03-16T08:56:39.966Z,65.30
2019-03-16T08:59:11.092Z,65.50
2019-03-16T09:01:41.411Z,65.20
2019-03-16T09:04:11.892Z,65.50
2019-03-16T09:06:42.281Z,64.80
2019-03-16T09:09:12.761Z,64.60
2019-03-16T09:11:44.025Z,64.40
2019-03-16T09:14:14.706Z,64.20
2019-03-16T09:16:44.940Z,64.10
2019-03-16T09:19:16.053Z,64.00
2019-03-16T09:21:46.769Z,63.70
2019-03-16T09:24:17.131Z,63.50
2019-03-16T09:26:47.778Z,64.40
2019-03-16T09:29:18.205Z,63.50
2019-03-16T09:31:49.000Z,63.50
2019-03-16T09:34:19.487Z,63.20
2019-03-16T09:36:50.933Z,62.90
2019-03-16T09:39:21.562Z,62.90
2019-03-16T09:41:52.080Z,62.50
2019-03-16T09:44:22.983Z,62.10
2019-03-16T09:46:53.854Z,62.00
2019-03-16T09:49:24.791Z,61.90
2019-03-16T09:51:56.280Z,61.70
2019-03-16T09:54:27.958Z,61.90
2019-03-16T09:57:01.443Z,61.70
2019-03-16T09:59:31.488Z,61.90
2019-03-16T10:02:02.275Z,61.70
2019-03-16T10:04:32.941Z,61.30
2019-03-16T10:07:04.097Z,61.10
2019-03-16T10:09:34.802Z,61.10
2019-03-16T10:12:09.294Z,61.10
2019-03-16T10:14:39.528Z,60.70
2019-03-16T10:17:10.370Z,60.40
2019-03-16T10:19:40.617Z,60.30
2019-03-16T10:22:10.967Z,60.60
2019-03-16T10:24:41.260Z,60.60
2019-03-16T10:27:11.943Z,60.10
2019-03-16T10:29:42.176Z,60.10
2019-03-16T10:32:12.709Z,59.90
2019-03-16T10:34:43.898Z,59.80
2019-03-16T10:37:14.257Z,59.50
2019-03-16T10:39:44.525Z,59.30
2019-03-16T10:42:15.355Z,59.10
2019-03-16T10:44:46.190Z,59.60
2019-03-16T10:47:17.540Z,59.20
2019-03-16T10:49:48.207Z,59.30
2019-03-16T10:52:18.984Z,59.00
2019-03-16T10:54:49.791Z,58.80
2019-03-16T10:57:20.035Z,58.80
2019-03-16T10:59:50.376Z,58.70
2019-03-16T11:02:21.354Z,58.50
2019-03-16T11:04:53.464Z,58.40
2019-03-16T11:07:23.713Z,58.60
2019-03-16T11:09:53.988Z,58.50
2019-03-16T11:12:24.616Z,58.30
2019-03-16T11:14:54.875Z,58.40
2019-03-16T11:17:25.665Z,58.00
2019-03-16T11:19:56.267Z,58.00
2019-03-16T11:22:26.968Z,58.30
2019-03-16T11:24:57.165Z,58.10
2019-03-16T11:27:28.088Z,58.20
2019-03-16T11:29:58.258Z,58.10
2019-03-16T11:32:29.277Z,58.10
2019-03-16T11:34:59.505Z,57.80
2019-03-16T11:37:30.297Z,57.70
2019-03-16T11:40:02.020Z,57.80
2019-03-16T11:42:33.427Z,57.60
2019-03-16T11:45:04.460Z,57.60
2019-03-16T11:47:34.725Z,57.50
2019-03-16T11:50:05.491Z,57.50
2019-03-16T11:52:36.069Z,57.30
2019-03-16T11:55:07.358Z,56.90
2019-03-16T11:57:39.362Z,56.70
2019-03-16T12:00:10.048Z,56.80
2019-03-16T12:02:40.744Z,56.70
2019-03-16T12:05:10.961Z,56.30
2019-03-16T12:07:41.883Z,56.20
2019-03-16T12:10:12.508Z,55.90
2019-03-16T12:12:43.125Z,55.60
2019-03-16T12:15:14.188Z,55.30
2019-03-16T12:17:44.826Z,55.30
2019-03-16T12:20:18.163Z,55.30
2019-03-16T12:22:48.532Z,55.20
2019-03-16T12:25:18.915Z,55.20
2019-03-16T12:27:50.053Z,55.10
2019-03-16T12:30:20.220Z,55.00
2019-03-16T12:32:50.841Z,55.20
2019-03-16T12:35:22.336Z,55.30
2019-03-16T12:37:53.595Z,55.00
2019-03-16T12:40:24.154Z,55.00
2019-03-16T12:42:54.503Z,55.20
2019-03-16T12:45:25.062Z,55.00
2019-03-16T12:47:55.390Z,55.00
2019-03-16T12:50:25.759Z,55.10
2019-03-16T12:52:55.932Z,55.00
2019-03-16T12:55:26.577Z,55.10
2019-03-16T12:57:56.932Z,55.00
2019-03-16T13:00:27.743Z,55.00
2019-03-16T13:02:59.479Z,54.80
2019-03-16T13:05:29.843Z,54.90
2019-03-16T13:08:00.112Z,55.00
2019-03-16T13:10:30.710Z,55.00
2019-03-16T13:13:01.358Z,55.30
2019-03-16T13:15:32.598Z,54.90
2019-03-16T13:18:03.861Z,54.80
2019-03-16T13:20:34.491Z,54.80
2019-03-16T13:23:04.674Z,54.60
2019-03-16T13:25:35.490Z,54.50
2019-03-16T13:28:05.982Z,54.40
2019-03-16T13:30:36.240Z,54.30
2019-03-16T13:33:07.337Z,54.20
2019-03-16T13:35:38.079Z,54.10
2019-03-16T13:38:08.743Z,53.90
2019-03-16T13:40:40.133Z,53.70
2019-03-16T13:43:12.932Z,53.50
2019-03-16T13:45:43.080Z,53.40
2019-03-16T13:48:13.350Z,53.20
2019-03-16T13:50:44.478Z,53.10
2019-03-16T13:53:15.098Z,52.80
2019-03-16T13:55:46.391Z,52.70
2019-03-16T13:58:17.000Z,52.50
2019-03-16T14:00:47.883Z,52.30
2019-03-16T14:03:19.110Z,52.10
2019-03-16T14:05:49.649Z,51.90
2019-03-16T14:08:20.368Z,51.80
2019-03-16T14:10:51.946Z,51.60
2019-03-16T14:13:23.978Z,51.50
2019-03-16T14:15:56.022Z,51.40
2019-03-16T14:18:27.269Z,51.50
2019-03-16T14:20:59.198Z,51.40
2019-03-16T14:23:30.086Z,51.10
2019-03-16T14:26:02.590Z,50.80
2019-03-16T14:28:33.929Z,50.60
2019-03-16T14:31:04.877Z,50.50
2019-03-16T14:33:35.143Z,50.00
2019-03-16T14:36:06.068Z,49.70
2019-03-16T14:38:36.651Z,49.50
2019-03-16T14:41:08.314Z,48.80
2019-03-16T14:43:38.941Z,49.40
2019-03-16T14:46:09.324Z,48.90
2019-03-16T14:48:41.186Z,48.80
2019-03-16T14:51:11.807Z,48.00
2019-03-16T14:53:42.137Z,47.70
2019-03-16T14:56:12.862Z,47.70
2019-03-16T14:58:43.206Z,46.90
2019-03-16T15:01:13.593Z,46.60
2019-03-16T15:03:44.298Z,46.40
2019-03-16T15:06:14.621Z,46.30
2019-03-16T15:08:45.495Z,46.10
2019-03-16T15:11:16.172Z,45.30
2019-03-16T15:13:46.576Z,45.20
2019-03-16T15:16:17.560Z,44.70
2019-03-16T15:18:49.991Z,44.50
2019-03-16T15:21:20.706Z,44.50
2019-03-16T15:23:51.015Z,44.00
2019-03-16T15:26:22.625Z,43.70
2019-03-16T15:28:55.175Z,44.20
2019-03-16T15:31:25.870Z,43.30
2019-03-16T15:33:56.042Z,43.30
2019-03-16T15:36:26.300Z,43.30
2019-03-16T15:38:57.431Z,43.10
2019-03-16T15:41:27.724Z,43.10
2019-03-16T15:43:59.196Z,43.20
2019-03-16T15:46:29.922Z,43.50
2019-03-16T15:49:00.139Z,43.60
2019-03-16T15:51:30.422Z,43.20
2019-03-16T15:54:01.822Z,43.20
2019-03-16T15:56:32.751Z,42.90
2019-03-16T19:24:18.158Z,52.10
2019-03-16T19:27:29.529Z,51.10
2019-03-16T19:30:52.998Z,52.50
2019-03-16T19:34:08.691Z,52.20
2019-03-16T19:40:52.067Z,50.80
2019-03-16T19:47:07.755Z,51.00
2019-03-16T19:51:15.816Z,50.90
2019-03-16T19:53:56.446Z,51.20
2019-03-16T19:56:44.039Z,51.50
2019-03-16T20:06:25.613Z,51.20
2019-03-16T20:12:08.706Z,50.80
2019-03-16T20:18:27.980Z,51.10
2019-03-16T20:21:06.256Z,51.40
2019-03-16T20:24:54.459Z,51.50
2019-03-16T20:31:49.401Z,50.80
2019-03-16T20:35:12.581Z,52.30
2019-03-16T20:42:42.771Z,51.10
2019-03-16T20:46:02.965Z,50.60
2019-03-16T20:48:50.328Z,50.00
2019-03-16T22:02:59.698Z,47.40
2019-03-16T22:05:41.268Z,47.90
2019-03-16T22:08:11.897Z,47.40
2019-03-16T22:10:42.082Z,48.80
2019-03-16T22:13:28.875Z,47.60
2019-03-16T22:16:04.171Z,47.00
2019-03-16T22:18:57.060Z,47.50
2019-03-16T22:21:52.823Z,46.70
2019-03-16T22:57:29.519Z,51.10
2019-03-16T23:10:50.432Z,51.00
2019-03-16T23:35:19.727Z,49.80
2019-03-16T23:50:22.989Z,50.40
2019-03-16T23:57:43.154Z,50.80
